Indianapolis, IN (46211)

8:58 AM EDT on July 29, 2016 (GMT -0400)
New Augusta, IN | | Change Station

Elev 846 ft 39.89 °N, 86.24 °W | Updated 1 minute ago

Mostly Cloudy
Mostly Cloudy
79.7 °F
Feels Like 83 °F
N
1.6
Wind Variable Wind from ESE

Today
High -- | Low -- °F
--% Chance of Precip.
Yesterday
High -- | Low -- °F
Precip. -- in
Pressure 29.92 in
Visibility 0.5 miles
Clouds Mostly Cloudy 300 ft
Mostly Cloudy 11000 ft
Heat Index 83 °F
Dew Point 69 °F
Humidity 71%
Rainfall 0.00 in
Snow Depth Not available.
6:41 AM 9:00 PM
Waning Crescent, 22% visible
METAR KIND 291254Z 19004KT 1/2SM R05L/P6000FT BR BKN003 BKN110 23/21 A2994 RMK AO2 SFC VIS 3 SLP132 VIS S-W 1 1/4 T02280211
Pressure 29.92 in
Visibility 0.5 miles
Clouds Mostly Cloudy 300 ft
Mostly Cloudy 11000 ft
Heat Index 83 °F
Dew Point 69 °F
Humidity 71%
Rainfall 0.00 in
Snow Depth Not available.
6:41 AM 9:00 PM
Waning Crescent, 22% visible
METAR KIND 291254Z 19004KT 1/2SM R05L/P6000FT BR BKN003 BKN110 23/21 A2994 RMK AO2 SFC VIS 3 SLP132 VIS S-W 1 1/4 T02280211

10-Day Weather Forecast

Almanac

Astronomy

Jul. 29, 2016 Rise Set
Actual Time
Civil Twilight
Nautical Twilight
Astronomical Twilight
Moon
Length of Visible Light
Length of Day
Tomorrow will be .
, % of the Moon is Illuminated

Today's Extremes

State Highs State Lows

Community

WunderPhotos

Upload Photos

1,928,335 photos uploaded!

WunderBlog® & News

Nearby

Air Quality

  Air Quality AQ Index Pollutant
Not available.

Snow Depth

Station Depth Elevation

Earthquake Activity

City Distance Mag. Time & Date
Minimum magnitude displayed is 2.5.

Coastal Water Temperatures

Place Temperature

Stations

Nearby Weather Stations

Station Location Temp. Windchill Dew Point Humidity Wind Precip. Elev Updated Type
                   

Watches & Warnings

There are currently no watches in effect.